Time;durP1;ratioP1;P1;durP2;ratioP2;P2;SDS_P1;SDS_P2;PMS_P1;PMS_P2;Temp;Humidity;BMP_temperature;BMP_pressure;BME280_temperature;BME280_humidity;BME280_pressure;Samples;Min_cycle;Max_cycle;Signal;HPM_P1;HPM_P2
2023/07/16 00:02:19;;;;;;;0.77;0.77;;;;;;;;;;4897822;29;20179;-72
2023/07/16 00:04:44;;;;;;;1.00;1.00;;;;;;;;;;4903797;29;20278;-72
2023/07/16 00:07:10;;;;;;;0.80;0.80;;;;;;;;;;4914080;29;20185;-72
2023/07/16 00:09:35;;;;;;;0.93;0.93;;;;;;;;;;4920816;29;20209;-72
2023/07/16 00:12:01;;;;;;;0.80;0.80;;;;;;;;;;4898602;29;20181;-72
2023/07/16 00:14:26;;;;;;;1.30;1.20;;;;;;;;;;4898164;29;20190;-72
2023/07/16 00:16:51;;;;;;;1.20;1.10;;;;;;;;;;4898983;29;20184;-72
2023/07/16 00:19:16;;;;;;;3.03;1.70;;;;;;;;;;4905986;29;20190;-72
2023/07/16 00:21:41;;;;;;;1.70;1.23;;;;;;;;;;4913081;29;20188;-72
2023/07/16 00:24:07;;;;;;;1.00;1.00;;;;;;;;;;4909302;29;20200;-72
2023/07/16 00:26:32;;;;;;;1.20;1.20;;;;;;;;;;4903617;29;20479;-72
2023/07/16 00:28:57;;;;;;;2.37;1.20;;;;;;;;;;4906932;29;20209;-72
2023/07/16 00:31:22;;;;;;;1.57;1.47;;;;;;;;;;4907304;29;20241;-72
2023/07/16 00:33:48;;;;;;;1.00;1.00;;;;;;;;;;4907380;29;20185;-72
2023/07/16 00:36:13;;;;;;;2.07;1.33;;;;;;;;;;4904042;29;20187;-72
2023/07/16 00:38:40;;;;;;;1.67;1.40;;;;;;;;;;4895997;29;20187;-72
2023/07/16 00:41:05;;;;;;;1.20;1.10;;;;;;;;;;4897422;29;20184;-73
2023/07/16 00:43:30;;;;;;;2.17;1.40;;;;;;;;;;4896076;29;20191;-72
2023/07/16 00:45:56;;;;;;;1.63;1.53;;;;;;;;;;4888912;29;20180;-72
2023/07/16 00:48:21;;;;;;;1.50;1.40;;;;;;;;;;4881718;29;20248;-72
2023/07/16 00:50:46;;;;;;;1.50;1.40;;;;;;;;;;4879460;29;20212;-72
2023/07/16 00:53:12;;;;;;;2.00;1.50;;;;;;;;;;4901554;29;20210;-72
2023/07/16 00:55:38;;;;;;;1.73;1.33;;;;;;;;;;4895577;29;20235;-72
2023/07/16 00:58:07;;;;;;;1.93;1.50;;;;;;;;;;4896757;29;20186;-73
2023/07/16 01:00:33;;;;;;;1.90;1.33;;;;;;;;;;4897563;29;20187;-72
2023/07/16 01:03:00;;;;;;;1.60;1.50;;;;;;;;;;4883456;29;20192;-73
2023/07/16 01:05:28;;;;;;;1.40;1.30;;;;;;;;;;4896412;29;20192;-73
2023/07/16 01:07:56;;;;;;;1.47;1.37;;;;;;;;;;4901249;29;20193;-73
2023/07/16 01:10:22;;;;;;;1.47;1.37;;;;;;;;;;4895521;29;20216;-73
2023/07/16 01:12:47;;;;;;;1.50;1.40;;;;;;;;;;4899132;29;20187;-72
2023/07/16 01:15:12;;;;;;;2.07;1.70;;;;;;;;;;4914071;29;20235;-72
2023/07/16 01:17:38;;;;;;;1.50;1.40;;;;;;;;;;4906548;29;20183;-73
2023/07/16 01:20:05;;;;;;;2.40;1.40;;;;;;;;;;4897226;29;20193;-72
2023/07/16 01:22:30;;;;;;;1.40;1.30;;;;;;;;;;4909052;29;20190;-72
2023/07/16 01:25:14;;;;;;;1.70;1.60;;;;;;;;;;4907415;29;20190;-73
2023/07/16 01:28:04;;;;;;;2.47;1.50;;;;;;;;;;4907561;29;20187;-73
2023/07/16 01:30:30;;;;;;;1.80;1.70;;;;;;;;;;4893795;29;20293;-72
2023/07/16 01:32:56;;;;;;;2.23;1.80;;;;;;;;;;4889067;29;20218;-73
2023/07/16 01:35:22;;;;;;;3.20;1.60;;;;;;;;;;4909655;29;20188;-73
2023/07/16 01:37:47;;;;;;;3.30;1.87;;;;;;;;;;4895211;29;20275;-73
2023/07/16 01:40:12;;;;;;;3.07;2.00;;;;;;;;;;4912161;29;20180;-73
2023/07/16 01:42:38;;;;;;;2.40;1.73;;;;;;;;;;4902706;29;20199;-73
2023/07/16 01:45:03;;;;;;;1.70;1.50;;;;;;;;;;4879808;29;20196;-73
2023/07/16 01:47:29;;;;;;;1.93;1.60;;;;;;;;;;4877902;29;20198;-72
2023/07/16 01:49:54;;;;;;;1.60;1.50;;;;;;;;;;4896792;29;20205;-73
2023/07/16 01:52:19;;;;;;;1.87;1.50;;;;;;;;;;4894688;29;20189;-73
2023/07/16 01:54:44;;;;;;;1.83;1.63;;;;;;;;;;4908630;29;20235;-73
2023/07/16 01:57:10;;;;;;;1.87;1.77;;;;;;;;;;4913714;29;20181;-73
2023/07/16 01:59:35;;;;;;;2.10;1.90;;;;;;;;;;4887409;29;20198;-72
2023/07/16 02:02:00;;;;;;;1.60;1.50;;;;;;;;;;4878213;29;20197;-73
2023/07/16 02:04:25;;;;;;;3.07;1.90;;;;;;;;;;4876918;29;20229;-72
2023/07/16 02:06:50;;;;;;;1.60;1.40;;;;;;;;;;4880468;29;20243;-72
2023/07/16 02:09:16;;;;;;;2.80;1.60;;;;;;;;;;4894106;29;20223;-73
2023/07/16 02:11:41;;;;;;;2.17;1.70;;;;;;;;;;4897161;29;20200;-73
2023/07/16 02:14:06;;;;;;;1.60;1.50;;;;;;;;;;4889575;29;20280;-73
2023/07/16 02:16:31;;;;;;;2.03;1.50;;;;;;;;;;4889610;29;20193;-73
2023/07/16 02:18:56;;;;;;;2.43;2.00;;;;;;;;;;4894342;29;20186;-73
2023/07/16 02:21:22;;;;;;;2.50;1.50;;;;;;;;;;4889625;29;20284;-72
2023/07/16 02:23:47;;;;;;;2.60;1.83;;;;;;;;;;4874837;29;20267;-73
2023/07/16 02:26:12;;;;;;;1.83;1.63;;;;;;;;;;4883782;29;20193;-73
2023/07/16 02:28:37;;;;;;;2.07;1.80;;;;;;;;;;4899570;29;20182;-73
2023/07/16 02:31:03;;;;;;;4.27;2.17;;;;;;;;;;4899874;29;20209;-72
2023/07/16 02:33:28;;;;;;;1.97;1.77;;;;;;;;;;4901800;29;20209;-73
2023/07/16 02:35:53;;;;;;;1.70;1.60;;;;;;;;;;4912380;29;20196;-73
2023/07/16 02:38:18;;;;;;;2.23;2.00;;;;;;;;;;4923429;29;20185;-73
2023/07/16 02:40:44;;;;;;;3.17;1.83;;;;;;;;;;4883048;29;20191;-73
2023/07/16 02:43:09;;;;;;;3.40;2.10;;;;;;;;;;4885516;29;20194;-73
2023/07/16 02:45:34;;;;;;;2.97;2.20;;;;;;;;;;4914219;29;20211;-72
2023/07/16 02:48:00;;;;;;;4.00;2.10;;;;;;;;;;4909536;29;20201;-73
2023/07/16 02:50:25;;;;;;;2.90;2.10;;;;;;;;;;4899425;29;20209;-72
2023/07/16 02:52:50;;;;;;;3.23;1.80;;;;;;;;;;4881940;29;20324;-72
2023/07/16 02:55:15;;;;;;;8.23;2.70;;;;;;;;;;4877341;29;20364;-73
2023/07/16 02:57:40;;;;;;;3.37;1.80;;;;;;;;;;4887129;29;20204;-73
2023/07/16 03:00:06;;;;;;;5.67;2.37;;;;;;;;;;4900267;29;20186;-73
2023/07/16 03:02:31;;;;;;;2.73;2.10;;;;;;;;;;4903523;29;20188;-73
2023/07/16 03:04:56;;;;;;;6.30;2.47;;;;;;;;;;4911119;29;20196;-73
2023/07/16 03:07:22;;;;;;;2.40;2.00;;;;;;;;;;4893577;29;20197;-73
2023/07/16 03:09:47;;;;;;;3.70;1.87;;;;;;;;;;4887530;29;20210;-73
2023/07/16 03:12:12;;;;;;;4.30;1.90;;;;;;;;;;4896275;29;20197;-73
2023/07/16 03:14:37;;;;;;;2.73;1.87;;;;;;;;;;4898214;29;20181;-72
2023/07/16 03:17:03;;;;;;;5.83;2.40;;;;;;;;;;4885633;29;20194;-73
2023/07/16 03:19:28;;;;;;;3.63;1.80;;;;;;;;;;4877284;29;20199;-73
2023/07/16 03:21:53;;;;;;;4.53;2.20;;;;;;;;;;4881982;29;20183;-73
2023/07/16 03:24:18;;;;;;;4.50;2.33;;;;;;;;;;4891206;29;20190;-72
2023/07/16 03:26:43;;;;;;;3.33;2.10;;;;;;;;;;4894348;29;20186;-73
2023/07/16 03:29:09;;;;;;;4.00;2.23;;;;;;;;;;4894023;29;20198;-72
2023/07/16 03:31:34;;;;;;;3.40;2.13;;;;;;;;;;4910713;29;20187;-73
2023/07/16 03:33:59;;;;;;;2.80;2.23;;;;;;;;;;4903419;29;20182;-73
2023/07/16 03:36:24;;;;;;;4.57;2.33;;;;;;;;;;4891548;29;20195;-73
2023/07/16 03:38:50;;;;;;;4.87;2.40;;;;;;;;;;4897658;29;20206;-73
2023/07/16 03:41:15;;;;;;;4.97;2.20;;;;;;;;;;4894853;29;20217;-73
2023/07/16 03:43:40;;;;;;;5.13;2.30;;;;;;;;;;4890448;29;20179;-73
2023/07/16 03:46:08;;;;;;;3.03;2.03;;;;;;;;;;4910537;29;20253;-73
2023/07/16 03:48:33;;;;;;;5.13;2.73;;;;;;;;;;4907123;29;20216;-72
2023/07/16 03:50:58;;;;;;;5.00;1.97;;;;;;;;;;4885781;29;20250;-73
2023/07/16 03:53:23;;;;;;;2.53;1.87;;;;;;;;;;4895445;29;20201;-73
2023/07/16 03:55:49;;;;;;;3.67;2.20;;;;;;;;;;4909526;29;20239;-73
2023/07/16 03:58:14;;;;;;;4.10;2.57;;;;;;;;;;4913302;29;20266;-72
2023/07/16 04:00:41;;;;;;;3.83;2.20;;;;;;;;;;4908670;29;20185;-73
2023/07/16 04:03:06;;;;;;;3.77;2.37;;;;;;;;;;4907141;29;20203;-73
2023/07/16 04:05:31;;;;;;;4.83;2.17;;;;;;;;;;4897628;29;20184;-73
2023/07/16 04:07:56;;;;;;;2.40;1.90;;;;;;;;;;4882065;29;20209;-73
2023/07/16 04:10:21;;;;;;;4.37;2.20;;;;;;;;;;4914982;29;20208;-73
2023/07/16 04:12:47;;;;;;;4.63;2.20;;;;;;;;;;4907578;29;20193;-72
2023/07/16 04:15:12;;;;;;;4.57;2.50;;;;;;;;;;4897827;29;20268;-73
2023/07/16 04:17:37;;;;;;;4.47;2.00;;;;;;;;;;4897884;29;20191;-73
2023/07/16 04:20:03;;;;;;;4.77;2.17;;;;;;;;;;4898298;29;20188;-73
2023/07/16 04:22:28;;;;;;;4.73;2.13;;;;;;;;;;4898124;29;20271;-73
2023/07/16 04:24:53;;;;;;;4.43;2.23;;;;;;;;;;4897358;29;20205;-72
2023/07/16 04:27:19;;;;;;;5.43;2.10;;;;;;;;;;4912690;29;20277;-72
2023/07/16 04:29:44;;;;;;;2.90;1.80;;;;;;;;;;4902929;29;20291;-73
2023/07/16 04:32:09;;;;;;;6.17;2.57;;;;;;;;;;4910222;29;20193;-73
2023/07/16 04:34:35;;;;;;;3.37;2.03;;;;;;;;;;4907329;29;20183;-73
2023/07/16 04:37:00;;;;;;;4.00;2.40;;;;;;;;;;4898411;29;20201;-73
2023/07/16 04:39:25;;;;;;;7.97;2.67;;;;;;;;;;4882129;29;20196;-73
2023/07/16 04:41:50;;;;;;;3.77;2.30;;;;;;;;;;4895494;29;20189;-73
2023/07/16 04:44:15;;;;;;;5.07;2.37;;;;;;;;;;4881251;29;20187;-73
2023/07/16 04:46:40;;;;;;;5.53;2.30;;;;;;;;;;4901160;29;20303;-73
2023/07/16 04:49:06;;;;;;;3.20;1.90;;;;;;;;;;4897672;29;20239;-73
2023/07/16 04:51:31;;;;;;;3.27;2.00;;;;;;;;;;4897530;29;20187;-73
2023/07/16 04:53:56;;;;;;;8.13;2.90;;;;;;;;;;4897868;29;20238;-72
2023/07/16 04:56:22;;;;;;;5.07;2.73;;;;;;;;;;4895942;29;20186;-72
2023/07/16 04:58:47;;;;;;;5.13;2.10;;;;;;;;;;4899170;29;20184;-73
2023/07/16 05:01:12;;;;;;;2.37;2.10;;;;;;;;;;4910971;29;20212;-73
2023/07/16 05:03:37;;;;;;;5.10;2.97;;;;;;;;;;4914098;29;20193;-72
2023/07/16 05:06:03;;;;;;;5.60;2.60;;;;;;;;;;4899660;29;20287;-73
2023/07/16 05:08:28;;;;;;;6.90;2.43;;;;;;;;;;4895920;29;20192;-73
2023/07/16 05:10:54;;;;;;;5.03;2.10;;;;;;;;;;4896037;29;20353;-73
2023/07/16 05:13:19;;;;;;;5.70;2.20;;;;;;;;;;4896676;29;20281;-73
2023/07/16 05:15:44;;;;;;;3.60;2.30;;;;;;;;;;4888055;29;20189;-72
2023/07/16 05:18:09;;;;;;;5.37;2.30;;;;;;;;;;4894613;29;20235;-73
2023/07/16 05:20:34;;;;;;;5.83;2.33;;;;;;;;;;4916852;29;20210;-73
2023/07/16 05:23:00;;;;;;;4.70;2.00;;;;;;;;;;4907873;29;20220;-73
2023/07/16 05:25:25;;;;;;;5.63;2.10;;;;;;;;;;4893603;29;20194;-73
2023/07/16 05:27:50;;;;;;;5.80;2.77;;;;;;;;;;4883580;29;20247;-73
2023/07/16 05:30:16;;;;;;;5.83;2.97;;;;;;;;;;4911080;29;20288;-72
2023/07/16 05:32:41;;;;;;;3.37;2.00;;;;;;;;;;4908702;29;20192;-73
2023/07/16 05:35:07;;;;;;;6.97;2.43;;;;;;;;;;4879290;29;20185;-73
2023/07/16 05:37:32;;;;;;;4.17;2.27;;;;;;;;;;4881552;29;20189;-73
2023/07/16 05:39:57;;;;;;;3.30;2.13;;;;;;;;;;4877932;29;20196;-72
2023/07/16 05:42:22;;;;;;;3.77;1.90;;;;;;;;;;4896858;29;20188;-73
2023/07/16 05:44:47;;;;;;;4.97;2.70;;;;;;;;;;4892035;29;20256;-72
2023/07/16 05:47:13;;;;;;;4.73;2.50;;;;;;;;;;4906430;29;20249;-73
2023/07/16 05:49:38;;;;;;;4.33;1.80;;;;;;;;;;4908255;29;20263;-73
2023/07/16 05:52:03;;;;;;;3.60;2.10;;;;;;;;;;4894698;29;20288;-73
2023/07/16 05:54:28;;;;;;;3.83;2.07;;;;;;;;;;4910235;29;20322;-73
2023/07/16 05:56:54;;;;;;;3.87;1.97;;;;;;;;;;4910863;29;20185;-73
2023/07/16 05:59:19;;;;;;;3.93;2.30;;;;;;;;;;4911906;29;20200;-73
2023/07/16 06:01:44;;;;;;;4.60;2.23;;;;;;;;;;4900981;29;20180;-73
2023/07/16 06:04:09;;;;;;;4.50;2.13;;;;;;;;;;4900773;29;20279;-73
2023/07/16 06:06:35;;;;;;;2.70;1.80;;;;;;;;;;4905924;29;20196;-73
2023/07/16 06:09:00;;;;;;;10.63;2.43;;;;;;;;;;4907853;29;20229;-73
2023/07/16 06:11:25;;;;;;;3.53;1.90;;;;;;;;;;4880780;29;20185;-73
2023/07/16 06:13:53;;;;;;;6.57;2.00;;;;;;;;;;4890192;29;20234;-73
2023/07/16 06:16:18;;;;;;;6.37;2.77;;;;;;;;;;4880867;29;20272;-73
2023/07/16 06:18:43;;;;;;;5.67;2.27;;;;;;;;;;4897104;29;20192;-72
2023/07/16 06:21:08;;;;;;;3.23;2.23;;;;;;;;;;4892496;29;20258;-73
2023/07/16 06:23:34;;;;;;;6.27;1.90;;;;;;;;;;4900497;29;20182;-73
2023/07/16 06:25:59;;;;;;;5.73;2.20;;;;;;;;;;4897616;29;20221;-73
2023/07/16 06:28:24;;;;;;;3.57;2.10;;;;;;;;;;4906575;29;20186;-73
2023/07/16 06:30:51;;;;;;;9.03;2.53;;;;;;;;;;4912274;29;20234;-73
2023/07/16 06:33:17;;;;;;;6.37;2.30;;;;;;;;;;4904044;29;20186;-73
2023/07/16 06:35:44;;;;;;;4.00;1.97;;;;;;;;;;4896850;29;20223;-72
2023/07/16 06:38:09;;;;;;;5.87;2.27;;;;;;;;;;4894365;29;20197;-73
2023/07/16 06:40:34;;;;;;;5.10;2.60;;;;;;;;;;4897345;29;20185;-73
2023/07/16 06:42:59;;;;;;;2.93;1.97;;;;;;;;;;4892439;29;20281;-73
2023/07/16 06:45:25;;;;;;;4.10;2.13;;;;;;;;;;4898012;29;20198;-73
2023/07/16 06:47:50;;;;;;;2.73;2.10;;;;;;;;;;4896714;29;20195;-72
2023/07/16 06:50:16;;;;;;;6.50;2.47;;;;;;;;;;4877666;29;20213;-73
2023/07/16 06:52:41;;;;;;;4.13;2.23;;;;;;;;;;4903251;29;20237;-73
2023/07/16 06:55:06;;;;;;;3.80;1.93;;;;;;;;;;4905066;29;20233;-73
2023/07/16 06:57:31;;;;;;;5.17;2.17;;;;;;;;;;4899327;29;20193;-72
2023/07/16 06:59:57;;;;;;;2.10;1.90;;;;;;;;;;4895481;29;20231;-73
2023/07/16 07:02:22;;;;;;;3.63;2.20;;;;;;;;;;4903188;29;20193;-73
2023/07/16 07:04:47;;;;;;;4.53;2.57;;;;;;;;;;4897899;29;20213;-72
2023/07/16 07:07:12;;;;;;;5.00;2.00;;;;;;;;;;4907191;29;20190;-73
2023/07/16 07:09:37;;;;;;;3.57;2.13;;;;;;;;;;4898512;29;20320;-73
2023/07/16 07:12:03;;;;;;;5.07;2.10;;;;;;;;;;4905494;29;20273;-73
2023/07/16 07:14:28;;;;;;;4.73;2.33;;;;;;;;;;4884774;29;20192;-73
2023/07/16 07:16:54;;;;;;;5.73;2.43;;;;;;;;;;4897179;29;20184;-73
2023/07/16 07:19:19;;;;;;;3.87;2.20;;;;;;;;;;4893618;29;20193;-73
2023/07/16 07:21:44;;;;;;;4.47;2.00;;;;;;;;;;4906545;29;20271;-73
2023/07/16 07:24:09;;;;;;;7.13;2.50;;;;;;;;;;4881727;29;20191;-73
2023/07/16 07:26:35;;;;;;;2.77;2.23;;;;;;;;;;4913191;29;20273;-73
2023/07/16 07:29:00;;;;;;;4.60;2.13;;;;;;;;;;4911954;29;20193;-73
2023/07/16 07:31:25;;;;;;;6.10;2.00;;;;;;;;;;4910253;29;20189;-73
2023/07/16 07:33:50;;;;;;;3.80;1.93;;;;;;;;;;4905410;29;20190;-73
2023/07/16 07:36:15;;;;;;;3.73;2.23;;;;;;;;;;4909423;29;20219;-73
2023/07/16 07:38:41;;;;;;;3.93;2.37;;;;;;;;;;4910373;29;20324;-73
2023/07/16 07:41:06;;;;;;;3.73;2.40;;;;;;;;;;4929134;29;20229;-73
2023/07/16 07:43:31;;;;;;;3.53;1.80;;;;;;;;;;4899238;29;20221;-74
2023/07/16 07:45:57;;;;;;;6.50;1.70;;;;;;;;;;4898680;29;20271;-74
2023/07/16 07:48:22;;;;;;;10.10;2.10;;;;;;;;;;4903518;29;20176;-74
2023/07/16 07:50:47;;;;;;;5.07;2.40;;;;;;;;;;4899097;29;20360;-74
2023/07/16 07:53:14;;;;;;;2.90;1.53;;;;;;;;;;4901673;29;20210;-73
2023/07/16 07:55:39;;;;;;;3.97;2.40;;;;;;;;;;4906063;29;20231;-74
2023/07/16 07:58:05;;;;;;;3.80;1.80;;;;;;;;;;4908323;29;20224;-73
2023/07/16 08:00:30;;;;;;;4.13;2.00;;;;;;;;;;4899267;29;20193;-73
2023/07/16 08:02:55;;;;;;;3.67;2.40;;;;;;;;;;4901422;29;20188;-73
2023/07/16 08:05:20;;;;;;;4.20;2.47;;;;;;;;;;4879459;29;20203;-73
2023/07/16 08:07:46;;;;;;;4.90;2.00;;;;;;;;;;4880462;29;20185;-73
2023/07/16 08:10:11;;;;;;;3.57;2.20;;;;;;;;;;4882507;29;20221;-73
2023/07/16 08:12:36;;;;;;;2.57;1.93;;;;;;;;;;4878614;29;20185;-73
2023/07/16 08:15:01;;;;;;;2.53;2.00;;;;;;;;;;4882981;29;20183;-73
2023/07/16 08:17:26;;;;;;;4.40;2.20;;;;;;;;;;4896172;29;20183;-74
2023/07/16 08:19:52;;;;;;;2.53;1.90;;;;;;;;;;4895252;29;20192;-74
2023/07/16 08:22:17;;;;;;;5.53;2.30;;;;;;;;;;4899518;29;20192;-73
2023/07/16 08:24:42;;;;;;;4.23;2.40;;;;;;;;;;4903887;29;20194;-74
2023/07/16 08:27:08;;;;;;;3.60;2.17;;;;;;;;;;4910678;29;20245;-73
2023/07/16 08:29:35;;;;;;;6.10;2.50;;;;;;;;;;4902804;29;20201;-74
2023/07/16 08:32:00;;;;;;;2.60;2.30;;;;;;;;;;4880473;29;20196;-74
2023/07/16 08:34:25;;;;;;;2.70;2.00;;;;;;;;;;4878118;29;20181;-73
2023/07/16 08:36:50;;;;;;;2.07;1.70;;;;;;;;;;4878358;29;20212;-73
2023/07/16 08:39:19;;;;;;;3.27;1.53;;;;;;;;;;4891496;29;20286;-73
2023/07/16 08:41:44;;;;;;;4.00;1.93;;;;;;;;;;4881936;29;20187;-74
2023/07/16 08:44:11;;;;;;;4.90;2.40;;;;;;;;;;4896424;29;20186;-74
2023/07/16 08:46:36;;;;;;;6.63;2.20;;;;;;;;;;4905859;29;20182;-73
2023/07/16 08:49:03;;;;;;;2.60;2.17;;;;;;;;;;4895495;29;20190;-73
2023/07/16 08:51:28;;;;;;;5.03;2.20;;;;;;;;;;4872550;29;20251;-73
2023/07/16 08:53:54;;;;;;;3.30;2.17;;;;;;;;;;4881534;29;20262;-74
2023/07/16 08:56:19;;;;;;;4.80;2.00;;;;;;;;;;4895882;29;20187;-73
2023/07/16 08:58:45;;;;;;;4.03;2.07;;;;;;;;;;4899330;29;20185;-73
2023/07/16 09:01:10;;;;;;;3.27;1.83;;;;;;;;;;4896361;29;20276;-73
2023/07/16 09:03:35;;;;;;;4.53;2.43;;;;;;;;;;4916977;29;20189;-73
2023/07/16 09:06:02;;;;;;;3.00;2.30;;;;;;;;;;4879816;29;20339;-74
2023/07/16 09:08:28;;;;;;;7.50;2.30;;;;;;;;;;4898095;29;20196;-73
2023/07/16 09:10:57;;;;;;;3.10;2.13;;;;;;;;;;4883095;29;20349;-73
2023/07/16 09:13:26;;;;;;;2.90;2.10;;;;;;;;;;4896232;29;20195;-74
2023/07/16 09:15:52;;;;;;;3.47;2.10;;;;;;;;;;4897086;29;20208;-73
2023/07/16 09:18:35;;;;;;;2.37;2.03;;;;;;;;;;4897972;29;20189;-73
2023/07/16 09:21:05;;;;;;;2.80;2.13;;;;;;;;;;4896959;29;20195;-74
2023/07/16 09:23:32;;;;;;;3.13;2.30;;;;;;;;;;4893165;29;20202;-74
2023/07/16 09:25:57;;;;;;;3.80;2.00;;;;;;;;;;4896533;29;20230;-74
2023/07/16 09:28:22;;;;;;;5.57;2.00;;;;;;;;;;4881261;29;20264;-74
2023/07/16 09:30:48;;;;;;;2.83;2.10;;;;;;;;;;4878379;29;20213;-73
2023/07/16 09:33:14;;;;;;;3.73;2.00;;;;;;;;;;4898467;29;20221;-74
2023/07/16 09:35:39;;;;;;;2.93;2.07;;;;;;;;;;4907248;29;20245;-74
2023/07/16 09:38:05;;;;;;;3.20;2.10;;;;;;;;;;4909561;29;20295;-73
2023/07/16 09:40:31;;;;;;;3.47;2.40;;;;;;;;;;4915632;29;20193;-72
2023/07/16 09:42:56;;;;;;;3.10;2.10;;;;;;;;;;4885963;29;20230;-72
2023/07/16 09:45:22;;;;;;;3.53;1.93;;;;;;;;;;4894571;29;20191;-72
2023/07/16 09:47:47;;;;;;;5.70;2.33;;;;;;;;;;4900195;29;20196;-73
2023/07/16 09:50:12;;;;;;;2.83;1.97;;;;;;;;;;4914010;29;20216;-73
2023/07/16 09:58:45;;;;;;;3.27;2.50;;;;;;;;;;4892840;29;20302;-72
2023/07/16 10:01:11;;;;;;;3.13;2.10;;;;;;;;;;4910557;29;20226;-73
2023/07/16 10:03:36;;;;;;;3.80;1.87;;;;;;;;;;4905816;29;20261;-73
2023/07/16 10:06:08;;;;;;;3.80;2.50;;;;;;;;;;4902216;29;20269;-73
2023/07/16 10:08:53;;;;;;;3.47;1.83;;;;;;;;;;4906271;29;20216;-73
2023/07/16 10:11:18;;;;;;;4.03;2.07;;;;;;;;;;4893208;29;20225;-73
2023/07/16 10:13:48;;;;;;;3.57;2.17;;;;;;;;;;4913468;29;20190;-73
2023/07/16 10:16:21;;;;;;;2.93;2.13;;;;;;;;;;4893212;29;20197;-72
2023/07/16 10:18:50;;;;;;;4.60;2.23;;;;;;;;;;4902175;29;20185;-73
2023/07/16 10:21:22;;;;;;;2.93;2.10;;;;;;;;;;4911464;29;20220;-74
2023/07/16 10:24:07;;;;;;;2.73;1.90;;;;;;;;;;4908689;29;20191;-73
2023/07/16 10:26:35;;;;;;;3.77;2.03;;;;;;;;;;4903079;29;20258;-73
2023/07/16 10:29:00;;;;;;;3.60;2.10;;;;;;;;;;4909918;29;20197;-73
2023/07/16 10:31:26;;;;;;;2.30;2.00;;;;;;;;;;4896798;29;20210;-73
2023/07/16 10:34:08;;;;;;;5.50;2.20;;;;;;;;;;4896456;29;20193;-73
2023/07/16 10:36:36;;;;;;;4.07;2.20;;;;;;;;;;4890060;29;20189;-74
2023/07/16 10:39:03;;;;;;;4.03;2.43;;;;;;;;;;4913879;29;20182;-73
2023/07/16 10:41:30;;;;;;;2.60;1.90;;;;;;;;;;4909743;29;20183;-73
2023/07/16 10:43:55;;;;;;;2.67;2.15;;;;;;;;;;4911241;29;20193;-73
2023/07/16 10:46:20;;;;;;;2.40;1.95;;;;;;;;;;4912939;29;20276;-73
2023/07/16 10:48:46;;;;;;;3.15;2.08;;;;;;;;;;4902732;29;20190;-73
2023/07/16 10:51:13;;;;;;;3.08;2.03;;;;;;;;;;4916666;29;20216;-73
2023/07/16 10:53:40;;;;;;;2.72;2.20;;;;;;;;;;4902708;29;20198;-72
2023/07/16 10:56:06;;;;;;;2.30;2.00;;;;;;;;;;4912489;29;20265;-73
2023/07/16 10:58:31;;;;;;;2.30;2.03;;;;;;;;;;4916178;29;20266;-73
2023/07/16 11:00:56;;;;;;;2.88;2.10;;;;;;;;;;4915184;29;20221;-73
2023/07/16 11:03:21;;;;;;;3.28;2.40;;;;;;;;;;4903941;29;20190;-73
2023/07/16 11:05:47;;;;;;;2.50;2.15;;;;;;;;;;4910966;29;20225;-73
2023/07/16 11:08:21;;;;;;;2.63;1.92;;;;;;;;;;4921315;29;20334;-73
2023/07/16 11:10:52;;;;;;;4.32;2.38;;;;;;;;;;4915197;29;20214;-74
2023/07/16 11:13:17;;;;;;;1.90;1.80;;;;;;;;;;4908994;29;20186;-72
2023/07/16 11:15:42;;;;;;;3.67;2.33;;;;;;;;;;4909992;29;20191;-72
2023/07/16 11:18:07;;;;;;;2.88;2.10;;;;;;;;;;4908382;29;20179;-73
2023/07/16 11:20:33;;;;;;;2.20;1.92;;;;;;;;;;4914210;29;20171;-73
2023/07/16 11:22:59;;;;;;;3.00;2.20;;;;;;;;;;4914887;29;20191;-73
2023/07/16 11:25:25;;;;;;;3.10;2.00;;;;;;;;;;4921618;29;20178;-73
2023/07/16 11:27:53;;;;;;;3.22;2.35;;;;;;;;;;4918315;29;20230;-72
2023/07/16 11:30:22;;;;;;;2.80;2.30;;;;;;;;;;4902374;29;20206;-77
2023/07/16 11:32:50;;;;;;;3.42;2.10;;;;;;;;;;4898795;29;20180;-77
2023/07/16 11:35:16;;;;;;;3.92;2.10;;;;;;;;;;4914324;29;20171;-76
2023/07/16 11:37:41;;;;;;;3.05;2.08;;;;;;;;;;4899707;29;20182;-77
2023/07/16 11:40:11;;;;;;;2.30;2.10;;;;;;;;;;4909957;29;20214;-77
2023/07/16 11:42:37;;;;;;;3.63;2.10;;;;;;;;;;4906189;29;20202;-77
2023/07/16 11:45:03;;;;;;;3.50;2.40;;;;;;;;;;4910459;29;20267;-76
2023/07/16 11:47:29;;;;;;;2.78;2.10;;;;;;;;;;4915481;29;20278;-77
2023/07/16 11:49:54;;;;;;;2.30;2.08;;;;;;;;;;4912490;29;20207;-76
2023/07/16 11:52:24;;;;;;;2.20;2.00;;;;;;;;;;4892632;29;20175;-77
2023/07/16 11:54:49;;;;;;;3.85;2.22;;;;;;;;;;4898870;29;20223;-77
2023/07/16 11:57:15;;;;;;;2.67;2.35;;;;;;;;;;4910778;29;20242;-77
2023/07/16 11:59:40;;;;;;;3.70;2.55;;;;;;;;;;4893740;29;20242;-77
2023/07/16 12:02:05;;;;;;;4.50;2.42;;;;;;;;;;4886748;29;20223;-77
2023/07/16 12:04:31;;;;;;;3.40;1.90;;;;;;;;;;4919869;29;20190;-77
2023/07/16 12:06:56;;;;;;;2.17;1.95;;;;;;;;;;4888259;29;20279;-77
2023/07/16 12:09:21;;;;;;;4.45;2.20;;;;;;;;;;4906600;29;20216;-77
2023/07/16 12:11:46;;;;;;;4.55;2.45;;;;;;;;;;4898916;29;20219;-77
2023/07/16 12:14:12;;;;;;;2.70;2.15;;;;;;;;;;4895718;29;20230;-77
2023/07/16 12:16:38;;;;;;;1.88;1.73;;;;;;;;;;4895478;29;20184;-78
2023/07/16 12:19:03;;;;;;;3.03;2.10;;;;;;;;;;4906760;29;20185;-77
2023/07/16 12:21:28;;;;;;;4.28;2.22;;;;;;;;;;4906832;29;20211;-78
2023/07/16 12:23:54;;;;;;;4.10;2.30;;;;;;;;;;4893130;29;20180;-77
2023/07/16 12:26:20;;;;;;;4.63;2.15;;;;;;;;;;4898739;29;20251;-77
2023/07/16 12:28:45;;;;;;;2.90;2.20;;;;;;;;;;4889815;29;20266;-77
2023/07/16 12:31:10;;;;;;;4.20;2.25;;;;;;;;;;4908039;29;20223;-77
2023/07/16 12:33:35;;;;;;;2.03;1.73;;;;;;;;;;4889752;29;20184;-77
2023/07/16 12:36:01;;;;;;;3.92;2.33;;;;;;;;;;4899245;29;20184;-77
2023/07/16 12:38:26;;;;;;;3.95;2.20;;;;;;;;;;4889999;29;20182;-78
2023/07/16 12:40:51;;;;;;;2.78;2.33;;;;;;;;;;4886650;29;20259;-77
2023/07/16 12:43:16;;;;;;;2.72;2.47;;;;;;;;;;4891144;29;20180;-78
2023/07/16 12:45:41;;;;;;;3.22;2.45;;;;;;;;;;4887490;29;20203;-77
2023/07/16 12:48:07;;;;;;;3.08;1.85;;;;;;;;;;4906532;29;20215;-77
2023/07/16 12:50:32;;;;;;;2.30;2.10;;;;;;;;;;4894197;29;20211;-77
2023/07/16 12:52:57;;;;;;;3.47;2.25;;;;;;;;;;4893199;29;20231;-77
2023/07/16 12:55:23;;;;;;;2.53;2.05;;;;;;;;;;4894097;29;20187;-77
2023/07/16 12:57:48;;;;;;;2.90;2.35;;;;;;;;;;4896313;29;20224;-77
2023/07/16 13:00:14;;;;;;;2.22;2.03;;;;;;;;;;4894100;29;20270;-77
2023/07/16 13:02:39;;;;;;;3.33;1.95;;;;;;;;;;4894350;29;20191;-77
2023/07/16 13:05:04;;;;;;;3.00;2.30;;;;;;;;;;4909777;29;20330;-77
2023/07/16 13:07:33;;;;;;;2.60;2.25;;;;;;;;;;4893189;29;20270;-77
2023/07/16 13:09:58;;;;;;;5.10;2.38;;;;;;;;;;4909396;29;20216;-77
2023/07/16 13:12:23;;;;;;;3.55;2.42;;;;;;;;;;4909434;29;20304;-77
2023/07/16 13:14:49;;;;;;;2.72;2.05;;;;;;;;;;4895415;29;20278;-77
2023/07/16 13:17:16;;;;;;;2.45;1.92;;;;;;;;;;4905754;29;20190;-77
2023/07/16 13:19:41;;;;;;;2.50;2.30;;;;;;;;;;4888455;29;20200;-77
2023/07/16 13:22:07;;;;;;;2.50;2.20;;;;;;;;;;4889346;29;20188;-77
2023/07/16 13:24:32;;;;;;;3.15;2.40;;;;;;;;;;4890674;29;20209;-77
2023/07/16 13:26:57;;;;;;;3.85;2.30;;;;;;;;;;4902945;29;20240;-77
2023/07/16 13:29:22;;;;;;;2.63;2.43;;;;;;;;;;4890092;29;20185;-77
2023/07/16 13:31:48;;;;;;;3.38;2.38;;;;;;;;;;4888575;29;20441;-77
2023/07/16 13:34:13;;;;;;;4.70;2.53;;;;;;;;;;4891706;29;20185;-77
2023/07/16 13:36:38;;;;;;;2.10;1.90;;;;;;;;;;4901876;29;20247;-77
2023/07/16 13:39:07;;;;;;;2.28;1.95;;;;;;;;;;4888262;29;20290;-77
2023/07/16 13:41:33;;;;;;;3.33;2.40;;;;;;;;;;4898832;29;20294;-78
2023/07/16 13:43:58;;;;;;;2.38;1.95;;;;;;;;;;4887054;29;20243;-77
2023/07/16 13:46:23;;;;;;;3.28;2.55;;;;;;;;;;4891167;29;20207;-77
2023/07/16 13:48:48;;;;;;;4.15;2.85;;;;;;;;;;4901968;29;20188;-77
2023/07/16 13:51:13;;;;;;;3.78;2.28;;;;;;;;;;4907722;29;20203;-77
2023/07/16 13:53:39;;;;;;;3.00;2.30;;;;;;;;;;4898349;29;20208;-77
2023/07/16 13:56:04;;;;;;;3.78;2.45;;;;;;;;;;4886977;29;20176;-77
2023/07/16 13:58:29;;;;;;;2.58;2.10;;;;;;;;;;4892094;29;20180;-76
2023/07/16 14:00:54;;;;;;;3.90;2.50;;;;;;;;;;4909918;29;20214;-76
2023/07/16 14:03:20;;;;;;;2.33;2.00;;;;;;;;;;4907245;29;20274;-76
2023/07/16 14:05:45;;;;;;;3.83;2.20;;;;;;;;;;4903390;29;20434;-76
2023/07/16 14:08:10;;;;;;;4.05;2.45;;;;;;;;;;4895182;29;20186;-76
2023/07/16 14:10:35;;;;;;;2.67;2.47;;;;;;;;;;4897363;29;20218;-76
2023/07/16 14:13:00;;;;;;;2.65;2.10;;;;;;;;;;4913957;29;20267;-77
2023/07/16 14:15:26;;;;;;;2.70;2.50;;;;;;;;;;4913636;29;20179;-76
2023/07/16 14:17:51;;;;;;;2.60;2.40;;;;;;;;;;4913521;29;20209;-76
2023/07/16 14:20:16;;;;;;;2.95;2.22;;;;;;;;;;4900190;29;20183;-76
2023/07/16 14:22:41;;;;;;;5.38;2.67;;;;;;;;;;4910369;29;20197;-76
2023/07/16 14:25:08;;;;;;;4.37;2.57;;;;;;;;;;4917932;29;20187;-76
2023/07/16 14:27:33;;;;;;;2.85;2.33;;;;;;;;;;4898023;29;20529;-76
2023/07/16 14:29:59;;;;;;;4.90;2.80;;;;;;;;;;4911787;29;20203;-76
2023/07/16 14:32:24;;;;;;;2.47;2.17;;;;;;;;;;4912116;29;20259;-76
2023/07/16 14:35:26;;;;;;;5.45;3.17;;;;;;;;;;4910481;29;20262;-77
2023/07/16 14:40:54;;;;;;;3.53;2.50;;;;;;;;;;4912593;29;20250;-76
2023/07/16 14:43:19;;;;;;;4.10;2.42;;;;;;;;;;4910883;29;20199;-76
2023/07/16 14:45:45;;;;;;;4.78;2.42;;;;;;;;;;4907839;29;20194;-76